createdAt,value
2019-02-25T00:00:56.594Z,4.86
2019-02-25T00:03:59.715Z,4.85
2019-02-25T00:07:02.935Z,4.78
2019-02-25T00:10:06.743Z,4.71
2019-02-25T00:13:09.931Z,4.57
2019-02-25T00:16:13.119Z,4.46
2019-02-25T00:19:16.296Z,4.53
2019-02-25T00:22:19.399Z,4.50
2019-02-25T00:25:22.593Z,4.58
2019-02-25T00:28:26.019Z,4.57
2019-02-25T00:31:29.188Z,4.52
2019-02-25T00:34:32.407Z,4.55
2019-02-25T00:37:35.679Z,4.53
2019-02-25T00:40:39.496Z,4.61
2019-02-25T00:43:42.676Z,4.38
2019-02-25T00:46:45.774Z,4.38
2019-02-25T00:49:48.956Z,4.51
2019-02-25T00:52:52.073Z,4.57
2019-02-25T00:55:55.247Z,4.44
2019-02-25T00:58:58.343Z,4.30
2019-02-25T01:02:01.540Z,4.15
2019-02-25T01:05:05.349Z,4.11
2019-02-25T01:08:08.553Z,4.00
2019-02-25T01:11:11.739Z,3.88
2019-02-25T01:14:14.927Z,3.84
2019-02-25T01:17:18.112Z,3.77
2019-02-25T01:20:21.221Z,3.60
2019-02-25T01:23:24.414Z,3.40
2019-02-25T01:26:27.600Z,3.18
2019-02-25T01:29:30.795Z,3.04
2019-02-25T01:32:33.887Z,3.03
2019-02-25T01:35:37.088Z,3.15
2019-02-25T01:38:40.275Z,3.20
2019-02-25T01:41:43.372Z,3.30
2019-02-25T01:44:46.564Z,3.42
2019-02-25T01:47:49.647Z,3.47
2019-02-25T01:50:52.742Z,3.20
2019-02-25T01:53:55.843Z,3.12
2019-02-25T01:56:59.036Z,3.15
2019-02-25T02:00:02.224Z,3.18
2019-02-25T02:03:05.300Z,3.22
2019-02-25T02:06:08.500Z,3.05
2019-02-25T02:09:11.596Z,2.89
2019-02-25T02:12:14.711Z,2.76
2019-02-25T02:15:17.887Z,2.67
2019-02-25T02:18:20.975Z,2.76
2019-02-25T02:21:24.071Z,2.80
2019-02-25T02:24:27.163Z,2.84
2019-02-25T02:27:30.263Z,2.86
2019-02-25T02:30:33.460Z,2.87
2019-02-25T02:33:36.643Z,2.80
2019-02-25T02:36:39.843Z,2.73
2019-02-25T02:39:43.031Z,2.80
2019-02-25T02:42:48.992Z,2.73
2019-02-25T02:45:57.197Z,2.66
2019-02-25T02:49:03.055Z,2.66
2019-02-25T02:52:06.151Z,2.68
2019-02-25T02:55:09.355Z,2.64
2019-02-25T02:58:13.464Z,2.51
2019-02-25T03:01:16.656Z,2.53
2019-02-25T03:04:19.752Z,2.47
2019-02-25T03:07:22.935Z,2.45
2019-02-25T03:10:26.047Z,2.41
2019-02-25T03:13:29.567Z,2.17
2019-02-25T03:16:32.754Z,2.00
2019-02-25T03:19:35.936Z,1.88
2019-02-25T03:22:39.120Z,1.88
2019-02-25T03:25:42.307Z,1.86
2019-02-25T03:28:45.408Z,1.92
2019-02-25T03:31:48.618Z,1.81
2019-02-25T03:34:51.802Z,1.77
2019-02-25T03:37:54.971Z,1.80
2019-02-25T03:40:58.086Z,1.90
2019-02-25T03:44:01.280Z,1.93
2019-02-25T03:47:04.451Z,1.94
2019-02-25T03:50:07.663Z,2.01
2019-02-25T03:53:10.752Z,2.08
2019-02-25T03:56:13.936Z,2.13
2019-02-25T03:59:17.031Z,2.20
2019-02-25T04:02:20.147Z,2.27
2019-02-25T04:05:23.336Z,2.25
2019-02-25T04:08:26.500Z,2.26
2019-02-25T04:11:29.611Z,2.32
2019-02-25T04:14:32.801Z,2.36
2019-02-25T04:17:36.021Z,2.18
2019-02-25T04:20:39.185Z,2.05
2019-02-25T04:23:42.277Z,2.05
2019-02-25T04:26:45.379Z,1.85
2019-02-25T04:29:48.563Z,1.74
2019-02-25T04:32:51.655Z,1.64
2019-02-25T04:35:54.746Z,1.73
2019-02-25T04:38:57.840Z,1.68
2019-02-25T04:42:00.934Z,1.69
2019-02-25T04:45:04.767Z,1.75
2019-02-25T04:48:07.948Z,1.74
2019-02-25T04:51:11.237Z,1.68
2019-02-25T04:54:14.343Z,1.57
2019-02-25T04:57:17.423Z,1.50
2019-02-25T05:00:20.649Z,1.62
2019-02-25T05:03:23.815Z,1.68
2019-02-25T05:06:26.986Z,1.60
2019-02-25T05:09:30.094Z,1.61
2019-02-25T05:12:33.170Z,1.66
2019-02-25T05:15:36.274Z,1.65
2019-02-25T05:18:39.460Z,1.58
2019-02-25T05:21:42.559Z,1.47
2019-02-25T05:24:45.649Z,1.43
2019-02-25T05:27:48.748Z,1.38
2019-02-25T05:30:51.833Z,1.49
2019-02-25T05:33:54.929Z,1.59
2019-02-25T05:36:58.023Z,1.74
2019-02-25T05:40:01.096Z,1.83
2019-02-25T05:43:04.219Z,1.81
2019-02-25T05:46:07.401Z,1.68
2019-02-25T05:49:10.493Z,1.56
2019-02-25T05:52:13.674Z,1.57
2019-02-25T05:55:16.788Z,1.56
2019-02-25T05:58:19.964Z,1.56
2019-02-25T06:01:23.163Z,1.63
2019-02-25T06:04:26.239Z,1.69
2019-02-25T06:07:29.347Z,1.61
2019-02-25T06:10:32.434Z,1.44
2019-02-25T06:13:35.527Z,1.57
2019-02-25T06:16:38.731Z,1.68
2019-02-25T06:19:41.923Z,1.66
2019-02-25T06:22:45.153Z,1.63
2019-02-25T06:25:48.318Z,1.49
2019-02-25T06:28:51.612Z,1.31
2019-02-25T06:31:54.814Z,1.28
2019-02-25T06:34:58.005Z,1.27
2019-02-25T06:38:01.209Z,1.31
2019-02-25T06:41:04.392Z,1.39
2019-02-25T06:44:07.484Z,1.32
2019-02-25T06:47:10.681Z,1.21
2019-02-25T06:50:13.876Z,1.21
2019-02-25T06:53:17.052Z,1.21
2019-02-25T06:56:20.143Z,1.17
2019-02-25T06:59:23.251Z,1.25
2019-02-25T07:02:26.435Z,1.39
2019-02-25T07:05:36.684Z,1.57
2019-02-25T07:08:44.838Z,1.66
2019-02-25T07:11:53.479Z,1.77
2019-02-25T07:15:02.715Z,1.88
2019-02-25T07:18:14.897Z,2.01
2019-02-25T07:21:24.112Z,2.11
2019-02-25T07:24:32.395Z,2.22
2019-02-25T07:29:44.210Z,2.33
2019-02-25T07:34:56.424Z,2.60
2019-02-25T07:38:03.834Z,2.79
2019-02-25T07:41:18.088Z,2.93
2019-02-25T07:44:29.422Z,3.05
2019-02-25T07:47:37.665Z,3.12
2019-02-25T07:50:47.522Z,3.24
2019-02-25T07:54:53.187Z,3.35
2019-02-25T07:59:05.719Z,3.54
2019-02-25T08:02:17.117Z,3.72
2019-02-25T08:05:25.220Z,3.87
2019-02-25T08:08:33.763Z,4.03
2019-02-25T08:11:41.109Z,4.20
2019-02-25T08:14:49.667Z,4.35
2019-02-25T08:17:57.034Z,4.47
2019-02-25T08:21:17.329Z,4.61
2019-02-25T08:24:30.541Z,4.77
2019-02-25T08:27:32.098Z,4.93
2019-02-25T08:31:43.415Z,5.05
2019-02-25T08:34:51.689Z,5.30
2019-02-25T08:38:01.656Z,5.46
2019-02-25T08:41:14.847Z,5.61
2019-02-25T08:44:22.187Z,5.76
2019-02-25T08:47:44.535Z,5.94
2019-02-25T08:50:47.621Z,6.10
2019-02-25T08:53:50.747Z,6.21
2019-02-25T08:56:53.940Z,6.31
2019-02-25T08:59:57.115Z,6.48
2019-02-25T09:03:00.450Z,6.57
2019-02-25T09:06:03.524Z,6.68
2019-02-25T09:09:06.743Z,6.82
2019-02-25T09:12:09.928Z,6.94
2019-02-25T09:15:13.212Z,7.07
2019-02-25T09:18:16.408Z,7.23
2019-02-25T09:21:19.889Z,7.33
2019-02-25T09:24:23.227Z,7.48
2019-02-25T09:27:26.405Z,7.69
2019-02-25T09:30:29.683Z,7.85
2019-02-25T09:33:32.927Z,7.98
2019-02-25T09:36:36.070Z,8.18
2019-02-25T09:39:39.184Z,8.34
2019-02-25T09:42:42.359Z,8.42
2019-02-25T09:45:45.664Z,8.57
2019-02-25T09:48:48.895Z,8.66
2019-02-25T09:51:52.042Z,8.74
2019-02-25T09:54:55.252Z,8.87
2019-02-25T09:57:58.423Z,9.03
2019-02-25T10:01:01.671Z,9.22
2019-02-25T10:04:04.816Z,9.36
2019-02-25T10:07:08.027Z,9.53
2019-02-25T10:10:12.756Z,9.57
2019-02-25T10:13:15.927Z,9.72
2019-02-25T10:16:19.135Z,9.97
2019-02-25T10:19:22.323Z,10.21
2019-02-25T10:22:25.605Z,10.48
2019-02-25T10:25:28.742Z,10.65
2019-02-25T10:28:31.911Z,10.88
2019-02-25T10:31:35.003Z,10.92
2019-02-25T10:34:38.200Z,11.13
2019-02-25T10:37:42.207Z,11.33
2019-02-25T10:40:45.461Z,11.81
2019-02-25T10:43:48.494Z,12.22
2019-02-25T10:46:50.863Z,12.51
2019-02-25T10:49:53.960Z,12.76
2019-02-25T10:53:03.535Z,13.14
2019-02-25T10:56:06.912Z,13.26
2019-02-25T10:59:10.094Z,13.48
2019-02-25T11:02:15.254Z,13.70
2019-02-25T11:05:16.383Z,13.88
2019-02-25T11:08:19.604Z,14.03
2019-02-25T11:11:27.170Z,14.20
2019-02-25T11:14:31.109Z,14.12
2019-02-25T11:17:32.790Z,13.97
2019-02-25T11:20:37.630Z,14.11
2019-02-25T11:23:39.239Z,14.23
2019-02-25T11:26:42.401Z,14.33
2019-02-25T11:29:46.227Z,14.54
2019-02-25T11:32:49.133Z,14.58
2019-02-25T11:35:51.803Z,14.71
2019-02-25T11:38:54.905Z,14.92
2019-02-25T11:41:57.975Z,14.95
2019-02-25T11:45:02.399Z,15.21
2019-02-25T11:48:04.198Z,15.38
2019-02-25T11:51:07.387Z,15.60
2019-02-25T11:54:10.568Z,15.50
2019-02-25T11:57:13.763Z,15.42
2019-02-25T12:00:18.496Z,15.88
2019-02-25T12:03:21.603Z,16.25
2019-02-25T12:06:24.799Z,16.29
2019-02-25T12:09:28.023Z,16.30
2019-02-25T12:12:31.167Z,16.46
2019-02-25T12:15:34.359Z,16.33
2019-02-25T12:18:37.462Z,16.41
2019-02-25T12:21:42.305Z,16.71
2019-02-25T12:24:43.835Z,16.90
2019-02-25T12:27:46.944Z,16.80
2019-02-25T12:30:50.036Z,17.11
2019-02-25T12:33:53.755Z,17.17
2019-02-25T12:36:56.935Z,17.42
2019-02-25T12:40:00.101Z,17.59
2019-02-25T12:43:03.204Z,17.65
2019-02-25T12:46:06.311Z,17.64
2019-02-25T12:49:09.403Z,17.78
2019-02-25T12:52:12.623Z,18.07
2019-02-25T12:55:15.821Z,18.20
2019-02-25T12:58:19.076Z,18.02
2019-02-25T13:01:22.195Z,17.83
2019-02-25T13:04:25.392Z,18.05
2019-02-25T13:07:28.575Z,18.33
2019-02-25T13:10:31.774Z,18.56
2019-02-25T13:13:34.974Z,18.70
2019-02-25T13:16:38.156Z,18.48
2019-02-25T13:19:41.271Z,18.18
2019-02-25T13:22:44.446Z,18.09
2019-02-25T13:25:47.643Z,17.96
2019-02-25T13:28:50.833Z,18.27
2019-02-25T13:31:53.923Z,18.29
2019-02-25T13:34:57.111Z,18.16
2019-02-25T13:38:00.304Z,18.06
2019-02-25T13:41:03.405Z,18.28
2019-02-25T13:44:06.491Z,18.47
2019-02-25T13:47:09.691Z,18.27
2019-02-25T13:50:13.041Z,18.39
2019-02-25T13:53:16.183Z,18.79
2019-02-25T13:56:19.371Z,18.64
2019-02-25T13:59:22.479Z,18.89
2019-02-25T14:02:25.663Z,18.75
2019-02-25T14:05:28.859Z,19.07
2019-02-25T14:08:31.961Z,19.27
2019-02-25T14:11:35.147Z,18.92
2019-02-25T14:14:38.344Z,18.94
2019-02-25T14:17:41.539Z,18.98
2019-02-25T14:20:44.727Z,19.28
2019-02-25T14:23:48.054Z,19.27
2019-02-25T14:26:51.227Z,19.02
2019-02-25T14:29:54.419Z,19.01
2019-02-25T14:32:57.611Z,19.11
2019-02-25T14:36:00.807Z,19.00
2019-02-25T14:39:04.808Z,18.98
2019-02-25T14:42:09.329Z,18.67
2019-02-25T14:45:11.419Z,18.34
2019-02-25T14:48:18.210Z,18.52
2019-02-25T14:51:17.615Z,18.58
2019-02-25T14:54:22.295Z,18.34
2019-02-25T14:57:24.830Z,18.26
2019-02-25T15:00:28.994Z,18.33
2019-02-25T15:03:30.484Z,17.91
2019-02-25T15:06:34.736Z,17.60
2019-02-25T15:09:37.503Z,17.60
2019-02-25T15:12:40.148Z,17.55
2019-02-25T15:15:44.128Z,17.43
2019-02-25T15:18:46.336Z,17.32
2019-02-25T15:21:50.099Z,17.24
2019-02-25T15:24:54.360Z,17.11
2019-02-25T15:27:55.831Z,17.05
2019-02-25T15:31:00.089Z,17.01
2019-02-25T15:34:02.124Z,16.89
2019-02-25T15:37:07.018Z,16.86
2019-02-25T15:40:11.898Z,16.84
2019-02-25T15:43:15.819Z,16.77
2019-02-25T15:46:19.038Z,16.71
2019-02-25T15:49:21.605Z,16.68
2019-02-25T15:52:23.949Z,16.65
2019-02-25T15:55:27.683Z,16.57
2019-02-25T15:58:29.538Z,16.51
2019-02-25T16:01:32.723Z,16.46
2019-02-25T16:04:36.489Z,16.48
2019-02-25T16:07:40.176Z,16.47
2019-02-25T16:10:42.199Z,16.48
2019-02-25T16:13:45.448Z,16.43
2019-02-25T16:16:48.535Z,16.37
2019-02-25T16:19:53.464Z,16.31
2019-02-25T16:22:56.567Z,16.24
2019-02-25T16:25:58.140Z,16.13
2019-02-25T16:29:04.632Z,16.04
2019-02-25T16:32:04.471Z,15.99
2019-02-25T16:35:08.344Z,15.91
2019-02-25T16:38:11.482Z,15.85
2019-02-25T16:41:16.048Z,15.75
2019-02-25T16:44:18.360Z,15.69
2019-02-25T16:47:31.841Z,15.58
2019-02-25T16:50:24.758Z,15.49
2019-02-25T16:53:27.936Z,15.39
2019-02-25T16:56:31.038Z,15.26
2019-02-25T16:59:34.283Z,15.13
2019-02-25T17:02:38.469Z,14.95
2019-02-25T17:05:42.843Z,14.84
2019-02-25T17:08:43.826Z,14.72
2019-02-25T17:11:47.036Z,14.59
2019-02-25T17:14:50.152Z,14.41
2019-02-25T17:17:53.304Z,14.25
2019-02-25T17:20:56.394Z,14.06
2019-02-25T17:24:00.647Z,13.91
2019-02-25T17:27:04.501Z,13.68
2019-02-25T17:30:08.041Z,13.43
2019-02-25T17:33:12.461Z,13.30
2019-02-25T17:36:15.159Z,13.19
2019-02-25T17:39:17.547Z,13.10
2019-02-25T17:42:22.083Z,12.94
2019-02-25T17:45:25.043Z,12.70
2019-02-25T17:48:27.163Z,12.50
2019-02-25T17:51:30.425Z,12.41
2019-02-25T17:54:35.517Z,12.39
2019-02-25T17:57:37.390Z,12.33
2019-02-25T18:00:42.431Z,12.19
2019-02-25T18:03:45.596Z,12.06
2019-02-25T18:06:47.087Z,12.02
2019-02-25T18:09:50.188Z,11.93
2019-02-25T18:12:54.471Z,11.79
2019-02-25T18:15:56.836Z,11.62
2019-02-25T18:18:59.975Z,11.48
2019-02-25T18:22:03.242Z,11.27
2019-02-25T18:25:06.464Z,11.23
2019-02-25T18:28:10.734Z,11.16
2019-02-25T18:31:13.500Z,10.95
2019-02-25T18:34:16.055Z,10.74
2019-02-25T18:37:19.234Z,10.77
2019-02-25T18:40:22.436Z,10.82
2019-02-25T18:43:26.342Z,10.76
2019-02-25T18:46:29.788Z,10.66
2019-02-25T18:49:32.637Z,10.51
2019-02-25T18:52:36.758Z,10.41
2019-02-25T18:55:38.412Z,10.43
2019-02-25T18:58:41.705Z,10.37
2019-02-25T19:01:45.367Z,10.21
2019-02-25T19:04:47.877Z,10.19
2019-02-25T19:07:51.614Z,10.10
2019-02-25T19:10:54.970Z,10.03
2019-02-25T19:14:01.240Z,9.97
2019-02-25T19:17:02.163Z,9.94
2019-02-25T19:20:04.375Z,9.90
2019-02-25T19:23:10.144Z,9.86
2019-02-25T19:26:12.987Z,9.82
2019-02-25T19:29:15.245Z,9.77
2019-02-25T19:32:17.856Z,9.72
2019-02-25T19:35:23.410Z,9.59
2019-02-25T19:38:24.138Z,9.46
2019-02-25T19:41:29.819Z,9.26
2019-02-25T19:44:31.906Z,9.16
2019-02-25T19:47:35.158Z,9.04
2019-02-25T19:50:47.742Z,9.03
2019-02-25T19:53:40.753Z,8.99
2019-02-25T19:56:45.571Z,9.00
2019-02-25T19:59:50.246Z,8.94
2019-02-25T20:02:49.909Z,8.88
2019-02-25T20:05:54.468Z,8.82
2019-02-25T20:08:58.187Z,8.81
2019-02-25T20:12:01.823Z,8.47
2019-02-25T20:15:02.804Z,8.30
2019-02-25T20:18:07.121Z,8.26
2019-02-25T20:21:09.176Z,8.22
2019-02-25T20:24:14.458Z,8.23
2019-02-25T20:27:15.672Z,8.25
2019-02-25T20:30:19.620Z,8.25
2019-02-25T20:33:25.663Z,8.17
2019-02-25T20:36:26.234Z,8.05
2019-02-25T20:39:28.846Z,7.93
2019-02-25T20:42:32.735Z,7.95
2019-02-25T20:45:35.646Z,7.92
2019-02-25T20:48:38.451Z,7.93
2019-02-25T20:51:43.470Z,7.82
2019-02-25T20:54:45.943Z,7.64
2019-02-25T20:57:47.963Z,7.56
2019-02-25T21:00:51.124Z,7.54
2019-02-25T21:03:54.764Z,7.55
2019-02-25T21:06:57.539Z,7.64
2019-02-25T21:10:01.438Z,7.64
2019-02-25T21:13:04.037Z,7.58
2019-02-25T21:16:10.222Z,7.50
2019-02-25T21:19:12.555Z,7.42
2019-02-25T21:22:13.699Z,7.29
2019-02-25T21:25:16.983Z,7.35
2019-02-25T21:28:20.269Z,7.29
2019-02-25T21:31:23.915Z,7.22
2019-02-25T21:34:28.611Z,7.19
2019-02-25T21:37:29.883Z,7.23
2019-02-25T21:40:33.061Z,7.19
2019-02-25T21:43:36.279Z,7.20
2019-02-25T21:46:39.455Z,7.22
2019-02-25T21:49:42.651Z,7.15
2019-02-25T21:52:47.845Z,7.21
2019-02-25T21:55:50.634Z,7.11
2019-02-25T21:58:53.118Z,6.90
2019-02-25T22:01:57.265Z,6.84
2019-02-25T22:04:58.518Z,6.89
2019-02-25T22:08:03.672Z,6.89
2019-02-25T22:11:12.510Z,6.91
2019-02-25T22:14:08.083Z,6.76
2019-02-25T22:17:12.856Z,6.69
2019-02-25T22:20:16.569Z,6.71
2019-02-25T22:23:17.687Z,6.75
2019-02-25T22:26:24.134Z,6.73
2019-02-25T22:29:23.967Z,6.74
2019-02-25T22:32:27.159Z,6.70
2019-02-25T22:35:33.044Z,6.59
2019-02-25T22:38:33.547Z,6.34
2019-02-25T22:41:36.728Z,6.31
2019-02-25T22:44:39.821Z,6.35
2019-02-25T22:47:42.903Z,6.42
2019-02-25T22:50:46.019Z,6.45
2019-02-25T22:53:49.207Z,6.47
2019-02-25T22:56:52.299Z,6.50
2019-02-25T22:59:55.389Z,6.32
2019-02-25T23:02:58.491Z,6.04
2019-02-25T23:06:01.601Z,6.11
2019-02-25T23:09:07.454Z,6.18
2019-02-25T23:12:09.094Z,6.26
2019-02-25T23:15:12.326Z,6.37
2019-02-25T23:18:16.886Z,6.47
2019-02-25T23:21:23.805Z,6.24
2019-02-25T23:24:25.999Z,6.09
2019-02-25T23:27:27.753Z,6.00
2019-02-25T23:30:30.116Z,5.92
2019-02-25T23:33:33.331Z,5.87
2019-02-25T23:36:40.695Z,5.98
2019-02-25T23:39:40.527Z,6.10
2019-02-25T23:42:44.354Z,5.97
2019-02-25T23:45:46.412Z,5.83
2019-02-25T23:48:49.291Z,5.65
2019-02-25T23:51:52.483Z,5.52
2019-02-25T23:54:56.401Z,5.51
2019-02-25T23:57:58.858Z,5.57
